WetterOnline ( https://www.wetteronline.ch )

Wetter aktuell Denzlingen

Aktuelles Wetter: Freiburg/Flugplatz (236m)

6-stündlich | Neueste Meldungen
Ortszeit Temperatur Wetter
Mi, 17.04. 2:00 6.3° C Sprühregen
Di, 16.04. 20:00 7.6° C bedeckt
Di, 16.04. 14:00 10.5° C leicht bewölkt
Di, 16.04. 8:00 6.7° C bedeckt
Di, 16.04. 2:00 5.4° C leichter Regen
Mo, 15.04. 20:00 16.8° C bedeckt
Mo, 15.04. 14:00 17.8° C bedeckt
Mo, 15.04. 8:00 13.5° C bedeckt
Ortszeit Temperatur Wetter
Mi, 17.04. 4:00 5.9° C leichter Regen
Mi, 17.04. 3:40 6.0° C leichter Regen
Mi, 17.04. 3:30 6.0° C leichter Regen
Mi, 17.04. 3:20 6.0° C leichter Regen
Mi, 17.04. 3:10 6.1° C leichter Regen
Mi, 17.04. 3:00 6.2° C leichter Regen
Mi, 17.04. 2:50 6.2° C leichter Regen
Mi, 17.04. 2:30 6.3° C Sprühregen
Mi, 17.04. 2:00 6.3° C Sprühregen
Mi, 17.04. 1:30 5.9° C leichter Regen
Mi, 17.04. 1:00 5.3° C leichter Regen
Ortszeit Relative Feuchte Sichtweite
Mi, 17.04. 2:00 89% 45 km
Di, 16.04. 20:00 85% 55 km
Di, 16.04. 14:00 58% 50 km
Di, 16.04. 8:00 74% 45 km
Di, 16.04. 2:00 88% 13 km
Mo, 15.04. 20:00 39% 50 km
Mo, 15.04. 14:00 62% 40 km
Mo, 15.04. 8:00 91% 35 km
Ortszeit Relative Feuchte Sichtweite
Mi, 17.04. 4:00 91% 16 km
Mi, 17.04. 3:40 90% -
Mi, 17.04. 3:30 89% 12 km
Mi, 17.04. 3:20 89% -
Mi, 17.04. 3:10 88% -
Mi, 17.04. 3:00 88% 14 km
Mi, 17.04. 2:50 88% -
Mi, 17.04. 2:30 87% 40 km
Mi, 17.04. 2:00 89% 45 km
Mi, 17.04. 1:30 91% 45 km
Mi, 17.04. 1:00 88% 17 km
Ortszeit Niederschlagsmenge Niederschlagsart
Mi, 17.04. 2:00 3 l/m2 in 6 Std. Regen
Di, 16.04. 20:00 3 l/m2 in 12 Std. Regen
Di, 16.04. 14:00 0.1 l/m2 in 6 Std. Regen
Di, 16.04. 8:00 11 l/m2 in 12 Std. Regen
Di, 16.04. 2:00 9 l/m2 in 6 Std. Regen, Niederschlag
Mo, 15.04. 20:00 3 l/m2 in 12 Std. Regen
Mo, 15.04. 14:00 3 l/m2 in 6 Std. Regen
Mo, 15.04. 8:00 0.1 l/m2 in 12 Std. Regen
Ortszeit Niederschlagsmenge Niederschlagsart
Mi, 17.04. 4:00 0.7 l/m2 in 1 Std. Regen
Mi, 17.04. 3:40 keine Meldung -
Mi, 17.04. 3:30 0.4 l/m2 in 30 Min -
Mi, 17.04. 3:20 keine Meldung -
Mi, 17.04. 3:10 keine Meldung -
Mi, 17.04. 3:00 <0.05 l/m2 in 1 Std. Regen
Mi, 17.04. 2:50 keine Meldung -
Mi, 17.04. 2:30 <0.05 l/m2 in 30 Min -
Mi, 17.04. 2:00 0.2 l/m2 in 1 Std. Regen
Mi, 17.04. 1:30 0.2 l/m2 in 30 Min -
Mi, 17.04. 1:00 <0.05 l/m2 in 1 Std. Regen
Ortszeit Stärke Spitze Richtung
km/h Bft. km/h Grad Sektor
Mi, 17.04. 2:00 7 2 36 210° SW
Di, 16.04. 20:00 14 3 61 220° SW
Di, 16.04. 14:00 39 6 57 240° SW
Di, 16.04. 8:00 18 3 43 210° SW
Di, 16.04. 2:00 11 2 47 170° S
Mo, 15.04. 20:00 22 4 63 240° SW
Mo, 15.04. 14:00 26 4 44 220° SW
Mo, 15.04. 8:00 4 1 11 300° NW
Ortszeit Stärke Spitze Richtung
km/h Bft. km/h Grad Sektor
Mi, 17.04. 4:00 13 3 24 230° SW
Mi, 17.04. 3:40 14 3 - 230° SW
Mi, 17.04. 3:30 13 3 24 230° SW
Mi, 17.04. 3:20 13 3 - 230° SW
Mi, 17.04. 3:10 11 2 - 220° SW
Mi, 17.04. 3:00 14 3 25 230° SW
Mi, 17.04. 2:50 14 3 - 230° SW
Mi, 17.04. 2:30 13 3 19 210° SW
Mi, 17.04. 2:00 7 2 18 210° SW
Mi, 17.04. 1:30 11 2 14 180° S
Mi, 17.04. 1:00 6 1 24 190° S
Ortszeit Untergrenze Bedeckung Gattung
total tief tief mittel hoch
Mi, 17.04. 2:00 390 m 8/8 8/8 - - -
Di, 16.04. 20:00 870 m 8/8 8/8 - - -
Di, 16.04. 14:00 960 m 4/8 4/8 - - -
Di, 16.04. 8:00 1320 m 8/8 8/8 - - -
Di, 16.04. 2:00 1080 m 7/8 7/8 - - -
Mo, 15.04. 20:00 2100 m 8/8 8/8 - - -
Mo, 15.04. 14:00 1260 m 8/8 8/8 - - -
Mo, 15.04. 8:00 1380 m 8/8 8/8 - - -
Ortszeit Bedeckungsgrad in Achtel und Wolkenuntergrenze
Mi, 17.04. 4:00 2(330m) 7(720m)
Mi, 17.04. 3:40 7
Mi, 17.04. 3:30 2(360m) 7(1050m) 8(1320m)
Mi, 17.04. 3:20 2(360m) 7(1050m) 8(1320m)
Mi, 17.04. 3:10 8
Mi, 17.04. 3:00 7(1020m) 7(1500m)
Mi, 17.04. 2:50 7(1020m) 7(1500m)
Mi, 17.04. 2:30 5(1170m) 7(1440m)
Mi, 17.04. 2:00 1(390m) 7(1290m) 8(1500m)
Mi, 17.04. 1:30 1(930m) 7(1380m)
Mi, 17.04. 1:00 1(450m) 7(870m) 8(1260m)
Ortszeit Luftdruck NN (hPa) Tendenz (hPa in 3 Std.)
Mi, 17.04. 2:00 1012 + 0,2
Di, 16.04. 20:00 1011 + 0,5
Di, 16.04. 14:00 1012 - 0,7
Di, 16.04. 8:00 1013 + 1,0
Di, 16.04. 2:00 1014 - 0,5
Mo, 15.04. 20:00 1009 + 0,6
Mo, 15.04. 14:00 1011 - 2,2
Mo, 15.04. 8:00 1015 - 0,8
Ortszeit Luftdruck NN (hPa) Tendenz (hPa in 3 Std.)
Mi, 17.04. 4:00 1011 - 0,8
Mi, 17.04. 3:40 1011 keine Meldung
Mi, 17.04. 3:30 1011 - 0,4
Mi, 17.04. 3:20 1011 keine Meldung
Mi, 17.04. 3:10 1011 keine Meldung
Mi, 17.04. 3:00 1011 - 0,5
Mi, 17.04. 2:50 1011 keine Meldung
Mi, 17.04. 2:30 1012 - 0,4
Mi, 17.04. 2:00 1012 + 0,2
Mi, 17.04. 1:30 1012 - 0,1
Mi, 17.04. 1:00 1012 + 0,2
Ortszeit Schneehöhe (cm)
Mi, 17.04. 2:00 0
Di, 16.04. 20:00 0
Di, 16.04. 14:00 0
Di, 16.04. 8:00 0
Di, 16.04. 2:00 0
Mo, 15.04. 20:00 0
Mo, 15.04. 14:00 0
Mo, 15.04. 8:00 0
Ortszeit Schneehöhe (cm)
Mi, 17.04. 4:00 0
Mi, 17.04. 3:40 -
Mi, 17.04. 3:30 0
Mi, 17.04. 3:20 0
Mi, 17.04. 3:10 -
Mi, 17.04. 3:00 0
Mi, 17.04. 2:50 0
Mi, 17.04. 2:30 0
Mi, 17.04. 2:00 0
Mi, 17.04. 1:30 0
Mi, 17.04. 1:00 0
Link zu dieser Seite / Seite empfehlen

Das Wetter in ...